createdAt,value
2023-04-25T00:00:15.964Z,4.49
2023-04-25T00:02:42.516Z,4.46
2023-04-25T00:05:09.305Z,4.50
2023-04-25T00:07:35.784Z,4.44
2023-04-25T00:10:02.241Z,4.45
2023-04-25T00:12:29.542Z,4.46
2023-04-25T00:14:57.867Z,4.50
2023-04-25T00:17:27.789Z,4.35
2023-04-25T00:19:54.169Z,4.45
2023-04-25T00:22:21.591Z,4.42
2023-04-25T00:24:48.015Z,4.41
2023-04-25T00:27:14.784Z,4.12
2023-04-25T00:29:41.234Z,4.33
2023-04-25T00:32:07.946Z,4.23
2023-04-25T00:34:34.463Z,4.16
2023-04-25T00:37:03.194Z,4.10
2023-04-25T00:39:29.889Z,4.01
2023-04-25T00:41:56.569Z,4.18
2023-04-25T00:44:23.038Z,4.09
2023-04-25T00:46:50.591Z,3.88
2023-04-25T00:49:18.116Z,4.08
2023-04-25T00:51:45.660Z,3.94
2023-04-25T00:54:13.049Z,4.02
2023-04-25T00:56:39.593Z,3.78
2023-04-25T00:59:06.169Z,3.84
2023-04-25T01:01:32.657Z,3.87
2023-04-25T01:03:59.870Z,3.63
2023-04-25T01:06:26.389Z,3.77
2023-04-25T01:08:52.861Z,3.55
2023-04-25T01:11:19.303Z,3.45
2023-04-25T01:13:45.805Z,3.60
2023-04-25T01:16:12.507Z,3.58
2023-04-25T01:18:41.971Z,3.41
2023-04-25T01:21:12.075Z,3.61
2023-04-25T01:23:39.284Z,3.50
2023-04-25T01:26:05.861Z,3.48
2023-04-25T01:28:32.344Z,3.51
2023-04-25T01:30:59.082Z,3.45
2023-04-25T01:33:25.558Z,3.44
2023-04-25T01:35:52.162Z,3.42
2023-04-25T01:38:25.820Z,3.37
2023-04-25T01:40:52.874Z,3.13
2023-04-25T01:43:19.276Z,3.37
2023-04-25T01:45:45.738Z,3.33
2023-04-25T01:48:13.236Z,3.25
2023-04-25T01:50:40.152Z,3.03
2023-04-25T01:53:06.684Z,3.33
2023-04-25T01:55:33.098Z,3.41
2023-04-25T01:58:00.998Z,3.22
2023-04-25T02:00:27.466Z,3.41
2023-04-25T02:02:54.516Z,3.33
2023-04-25T02:05:21.687Z,3.18
2023-04-25T02:07:48.520Z,3.58
2023-04-25T02:10:14.956Z,3.57
2023-04-25T02:12:41.404Z,3.56
2023-04-25T02:15:08.062Z,3.56
2023-04-25T02:17:34.561Z,3.58
2023-04-25T02:20:01.218Z,3.58
2023-04-25T02:22:28.275Z,3.53
2023-04-25T02:24:55.078Z,3.34
2023-04-25T02:27:21.516Z,3.19
2023-04-25T02:29:47.911Z,3.27
2023-04-25T02:32:14.534Z,3.20
2023-04-25T02:34:41.163Z,2.95
2023-04-25T02:37:07.578Z,3.17
2023-04-25T02:39:33.998Z,2.96
2023-04-25T02:42:01.883Z,2.97
2023-04-25T02:44:28.305Z,3.03
2023-04-25T02:46:54.775Z,3.03
2023-04-25T02:49:21.471Z,2.89
2023-04-25T02:51:47.885Z,2.75
2023-04-25T02:54:14.287Z,2.80
2023-04-25T02:56:41.152Z,2.71
2023-04-25T02:59:07.748Z,2.72
2023-04-25T03:01:34.178Z,2.59
2023-04-25T03:04:00.631Z,2.36
2023-04-25T03:06:27.110Z,2.14
2023-04-25T03:08:53.909Z,2.11
2023-04-25T03:11:21.160Z,2.08
2023-04-25T03:13:47.599Z,2.14
2023-04-25T03:16:14.090Z,2.07
2023-04-25T03:18:40.502Z,2.06
2023-04-25T03:21:06.958Z,2.02
2023-04-25T03:23:33.365Z,1.65
2023-04-25T03:25:59.809Z,1.48
2023-04-25T03:28:26.473Z,1.48
2023-04-25T03:30:52.936Z,1.52
2023-04-25T03:33:19.346Z,1.53
2023-04-25T03:35:45.797Z,1.38
2023-04-25T03:38:12.209Z,1.36
2023-04-25T03:40:38.608Z,1.35
2023-04-25T03:43:05.186Z,1.46
2023-04-25T03:45:32.373Z,1.32
2023-04-25T03:47:58.927Z,0.97
2023-04-25T03:50:25.583Z,1.01
2023-04-25T03:52:52.042Z,1.28
2023-04-25T03:55:18.616Z,1.20
2023-04-25T03:57:45.171Z,0.95
2023-04-25T04:00:12.422Z,0.81
2023-04-25T04:03:31.985Z,0.82
2023-04-25T04:06:10.786Z,0.17
2023-04-25T04:09:14.990Z,0.17
2023-04-25T04:14:39.495Z,0.77
2023-04-25T04:17:06.929Z,0.15
2023-04-25T04:19:33.570Z,0.67
2023-04-25T04:21:59.988Z,0.67
2023-04-25T04:24:26.382Z,0.67
2023-04-25T04:26:52.963Z,0.76
2023-04-25T04:29:22.097Z,0.79
2023-04-25T04:31:50.616Z,0.52
2023-04-25T04:34:18.840Z,0.71
2023-04-25T04:36:48.526Z,0.63
2023-04-25T04:39:15.051Z,0.61
2023-04-25T04:41:41.595Z,0.57
2023-04-25T04:44:10.030Z,0.50
2023-04-25T04:46:38.774Z,0.47
2023-04-25T04:49:10.098Z,0.47
2023-04-25T04:51:37.703Z,0.49
2023-04-25T04:54:04.332Z,0.37
2023-04-25T04:56:31.840Z,0.41
2023-04-25T04:58:58.679Z,0.50
2023-04-25T05:01:25.536Z,0.48
2023-04-25T05:03:52.442Z,0.41
2023-04-25T05:06:19.957Z,0.37
2023-04-25T05:08:48.621Z,0.64
2023-04-25T05:11:15.804Z,0.58
2023-04-25T05:13:42.841Z,0.26
2023-04-25T05:16:09.450Z,1.00
2023-04-25T05:18:36.250Z,0.50
2023-04-25T05:21:02.858Z,0.91
2023-04-25T05:23:32.133Z,1.00
2023-04-25T05:25:59.864Z,1.05
2023-04-25T05:28:26.322Z,0.59
2023-04-25T05:30:53.225Z,0.90
2023-04-25T05:33:19.787Z,1.11
2023-04-25T05:35:46.242Z,1.04
2023-04-25T05:38:12.947Z,1.28
2023-04-25T05:40:39.373Z,1.31
2023-04-25T05:43:05.840Z,1.33
2023-04-25T05:45:32.250Z,1.40
2023-04-25T05:47:58.705Z,1.25
2023-04-25T05:50:25.334Z,1.27
2023-04-25T05:52:51.915Z,1.29
2023-04-25T05:55:18.480Z,1.39
2023-04-25T05:57:46.187Z,1.36
2023-04-25T06:00:13.919Z,1.29
2023-04-25T06:02:40.866Z,1.13
2023-04-25T06:05:07.799Z,1.25
2023-04-25T06:07:34.385Z,1.29
2023-04-25T06:10:01.727Z,1.36
2023-04-25T06:12:28.115Z,1.29
2023-04-25T06:14:55.252Z,1.18
2023-04-25T06:17:21.815Z,1.09
2023-04-25T06:19:48.346Z,1.05
2023-04-25T06:22:14.793Z,1.16
2023-04-25T06:24:41.205Z,1.13
2023-04-25T06:27:07.650Z,1.10
2023-04-25T06:29:34.062Z,1.13
2023-04-25T06:32:00.589Z,1.15
2023-04-25T06:34:26.991Z,1.05
2023-04-25T06:36:53.428Z,0.94
2023-04-25T06:39:21.038Z,0.97
2023-04-25T06:41:47.495Z,1.02
2023-04-25T06:44:14.145Z,1.10
2023-04-25T06:46:40.919Z,1.29
2023-04-25T06:49:07.537Z,1.24
2023-04-25T06:51:33.956Z,1.24
2023-04-25T06:54:00.945Z,1.35
2023-04-25T06:56:27.561Z,1.50
2023-04-25T06:58:53.971Z,1.36
2023-04-25T07:01:20.775Z,1.55
2023-04-25T07:03:47.570Z,1.73
2023-04-25T07:06:14.298Z,1.85
2023-04-25T07:08:40.866Z,1.69
2023-04-25T07:11:07.319Z,1.88
2023-04-25T07:13:33.800Z,1.92
2023-04-25T07:16:00.762Z,1.84
2023-04-25T07:18:27.211Z,2.05
2023-04-25T07:20:53.605Z,1.96
2023-04-25T07:23:29.565Z,2.11
2023-04-25T07:25:59.637Z,1.80
2023-04-25T07:28:26.185Z,2.27
2023-04-25T07:30:52.815Z,2.78
2023-04-25T07:33:21.534Z,3.42
2023-04-25T07:42:02.961Z,5.12
2023-04-25T07:44:31.264Z,6.65
2023-04-25T07:46:57.707Z,8.21
2023-04-25T07:49:24.158Z,8.46
2023-04-25T07:51:50.866Z,8.80
2023-04-25T07:54:18.175Z,8.56
2023-04-25T07:56:52.209Z,9.39
2023-04-25T07:59:19.606Z,9.85
2023-04-25T08:01:46.111Z,10.19
2023-04-25T08:04:12.859Z,10.55
2023-04-25T08:06:39.556Z,11.27
2023-04-25T08:09:06.159Z,11.96
2023-04-25T08:11:32.627Z,12.97
2023-04-25T08:13:59.079Z,13.96
2023-04-25T08:16:26.001Z,14.38
2023-04-25T08:18:52.780Z,14.63
2023-04-25T08:21:19.524Z,14.63
2023-04-25T08:23:46.585Z,14.12
2023-04-25T08:26:13.133Z,13.41
2023-04-25T08:28:39.561Z,12.45
2023-04-25T08:31:06.030Z,11.84
2023-04-25T08:33:33.673Z,11.09
2023-04-25T08:36:00.152Z,11.00
2023-04-25T08:38:27.020Z,10.64
2023-04-25T08:40:53.432Z,10.21
2023-04-25T08:43:20.509Z,9.54
2023-04-25T08:45:47.368Z,9.24
2023-04-25T08:48:17.274Z,9.01
2023-04-25T08:50:51.763Z,9.68
2023-04-25T08:53:20.352Z,10.04
2023-04-25T08:55:47.162Z,10.35
2023-04-25T08:58:13.727Z,9.72
2023-04-25T09:00:40.358Z,9.39
2023-04-25T09:03:07.048Z,9.15
2023-04-25T09:05:34.188Z,8.70
2023-04-25T09:08:01.745Z,8.32
2023-04-25T09:10:28.627Z,8.03
2023-04-25T09:13:04.749Z,7.70
2023-04-25T09:15:31.181Z,7.74
2023-04-25T09:17:58.307Z,7.21
2023-04-25T09:20:25.813Z,7.00
2023-04-25T09:23:06.191Z,6.65
2023-04-25T09:25:37.674Z,6.57
2023-04-25T09:28:05.220Z,6.49
2023-04-25T09:30:32.906Z,6.20
2023-04-25T09:33:08.033Z,6.04
2023-04-25T09:35:39.278Z,6.07
2023-04-25T09:38:15.559Z,5.91
2023-04-25T09:40:46.328Z,5.74
2023-04-25T09:43:25.400Z,5.63
2023-04-25T09:45:52.785Z,5.41
2023-04-25T09:48:20.889Z,5.08
2023-04-25T09:51:08.067Z,4.99
2023-04-25T09:53:36.400Z,4.69
2023-04-25T09:56:04.934Z,4.65
2023-04-25T09:58:33.116Z,4.52
2023-04-25T10:01:01.988Z,4.54
2023-04-25T10:03:32.855Z,4.44
2023-04-25T10:06:04.103Z,4.46
2023-04-25T10:08:34.976Z,4.39
2023-04-25T10:11:02.277Z,4.34
2023-04-25T10:13:30.540Z,4.24
2023-04-25T10:15:58.769Z,4.22
2023-04-25T10:18:26.693Z,4.18
2023-04-25T10:20:54.397Z,4.08
2023-04-25T10:23:21.027Z,4.04
2023-04-25T10:25:48.701Z,4.02
2023-04-25T10:28:15.291Z,3.63
2023-04-25T10:31:01.634Z,3.64
2023-04-25T10:33:36.919Z,3.41
2023-04-25T10:36:23.366Z,3.59
2023-04-25T10:38:51.647Z,3.41
2023-04-25T10:41:22.174Z,3.38
2023-04-25T10:43:49.251Z,3.36
2023-04-25T10:46:22.647Z,3.42
2023-04-25T10:48:59.327Z,3.62
2023-04-25T10:51:51.025Z,3.54
2023-04-25T10:54:21.177Z,3.67
2023-04-25T10:56:49.369Z,3.52
2023-04-25T10:59:19.529Z,3.57
2023-04-25T11:01:53.349Z,3.43
2023-04-25T11:04:30.070Z,3.33
2023-04-25T11:07:11.834Z,3.28
2023-04-25T11:09:41.577Z,3.33
2023-04-25T11:12:09.098Z,3.23
2023-04-25T11:14:35.689Z,3.35
2023-04-25T11:17:03.375Z,3.50
2023-04-25T11:19:30.158Z,3.64
2023-04-25T11:22:01.003Z,3.38
2023-04-25T11:24:31.670Z,3.58
2023-04-25T11:27:00.959Z,3.56
2023-04-25T11:29:27.898Z,3.48
2023-04-25T11:31:57.047Z,3.31
2023-04-25T11:34:23.507Z,3.47
2023-04-25T11:36:49.961Z,3.47
2023-04-25T11:39:16.399Z,3.64
2023-04-25T11:41:44.458Z,3.77
2023-04-25T11:44:12.789Z,3.70
2023-04-25T11:46:39.273Z,3.78
2023-04-25T11:49:05.875Z,3.92
2023-04-25T11:51:41.996Z,3.91
2023-04-25T11:54:08.818Z,3.99
2023-04-25T11:56:35.316Z,3.85
2023-04-25T11:59:03.395Z,3.98
2023-04-25T12:01:31.666Z,4.02
2023-04-25T12:04:00.034Z,4.14
2023-04-25T12:06:31.473Z,4.32
2023-04-25T12:09:12.208Z,4.38
2023-04-25T12:11:48.582Z,4.36
2023-04-25T12:14:28.657Z,4.39
2023-04-25T12:17:02.231Z,4.56
2023-04-25T12:19:35.903Z,4.50
2023-04-25T12:22:03.945Z,4.47
2023-04-25T12:24:30.687Z,4.57
2023-04-25T12:27:04.546Z,4.65
2023-04-25T12:29:41.988Z,4.69
2023-04-25T12:32:15.444Z,4.73
2023-04-25T12:34:42.084Z,4.76
2023-04-25T12:37:08.519Z,4.79
2023-04-25T12:39:34.968Z,4.63
2023-04-25T12:42:01.902Z,4.74
2023-04-25T12:44:28.465Z,4.93
2023-04-25T12:46:55.825Z,4.82
2023-04-25T12:49:22.299Z,5.14
2023-04-25T12:51:48.935Z,5.20
2023-04-25T12:54:15.513Z,5.21
2023-04-25T12:56:42.245Z,5.41
2023-04-25T12:59:08.728Z,5.42
2023-04-25T13:01:36.513Z,5.44
2023-04-25T13:04:03.366Z,5.59
2023-04-25T13:06:31.760Z,5.63
2023-04-25T13:08:58.409Z,5.58
2023-04-25T13:11:24.828Z,5.76
2023-04-25T13:13:51.414Z,5.74
2023-04-25T13:16:18.188Z,5.67
2023-04-25T13:18:44.724Z,5.78
2023-04-25T13:21:12.360Z,5.57
2023-04-25T13:23:38.855Z,5.42
2023-04-25T13:26:05.430Z,5.12
2023-04-25T13:28:31.921Z,5.12
2023-04-25T13:30:58.912Z,5.07
2023-04-25T13:33:25.389Z,5.07
2023-04-25T13:35:54.925Z,4.77
2023-04-25T13:38:26.750Z,4.73
2023-04-25T13:40:53.637Z,4.81
2023-04-25T13:43:21.257Z,4.86
2023-04-25T13:45:47.707Z,4.90
2023-04-25T13:48:14.146Z,4.89
2023-04-25T13:50:40.593Z,5.07
2023-04-25T13:53:07.256Z,5.27
2023-04-25T13:55:36.257Z,5.32
2023-04-25T13:58:08.135Z,5.34
2023-04-25T14:00:36.904Z,5.62
2023-04-25T14:03:05.932Z,5.70
2023-04-25T14:05:32.540Z,5.79
2023-04-25T14:08:00.387Z,5.64
2023-04-25T14:10:28.615Z,5.69
2023-04-25T14:12:55.023Z,5.59
2023-04-25T14:15:21.506Z,5.57
2023-04-25T14:17:49.302Z,5.65
2023-04-25T14:20:16.266Z,5.78
2023-04-25T14:22:44.666Z,5.83
2023-04-25T14:25:11.181Z,6.07
2023-04-25T14:27:37.622Z,6.20
2023-04-25T14:30:05.586Z,6.22
2023-04-25T14:32:33.026Z,6.15
2023-04-25T14:34:59.533Z,6.25
2023-04-25T14:37:25.983Z,6.25
2023-04-25T14:39:52.405Z,6.21
2023-04-25T14:42:18.826Z,6.13
2023-04-25T14:44:45.998Z,6.27
2023-04-25T14:47:12.455Z,6.21
2023-04-25T14:49:39.102Z,6.39
2023-04-25T14:52:05.801Z,6.49
2023-04-25T14:54:32.278Z,6.50
2023-04-25T14:56:59.000Z,6.68
2023-04-25T14:59:25.468Z,6.67
2023-04-25T15:01:51.936Z,6.51
2023-04-25T15:04:18.592Z,6.60
2023-04-25T15:06:45.182Z,6.66
2023-04-25T15:09:11.633Z,6.50
2023-04-25T15:11:38.282Z,6.49
2023-04-25T15:14:04.705Z,6.35
2023-04-25T15:16:31.982Z,6.18
2023-04-25T15:18:58.457Z,6.06
2023-04-25T15:21:25.352Z,5.71
2023-04-25T15:23:52.368Z,5.62
2023-04-25T15:26:19.088Z,5.39
2023-04-25T15:28:45.500Z,4.99
2023-04-25T15:31:12.094Z,4.86
2023-04-25T15:33:38.696Z,4.80
2023-04-25T15:36:05.883Z,4.60
2023-04-25T15:38:32.318Z,4.40
2023-04-25T15:40:58.795Z,4.36
2023-04-25T15:43:25.270Z,4.46
2023-04-25T15:45:52.003Z,4.39
2023-04-25T15:48:18.463Z,4.41
2023-04-25T15:50:44.886Z,4.50
2023-04-25T15:53:11.302Z,4.56
2023-04-25T15:55:37.780Z,4.53
2023-04-25T15:58:04.206Z,4.34
2023-04-25T16:00:31.343Z,4.35
2023-04-25T16:02:57.903Z,4.12
2023-04-25T16:05:24.515Z,4.18
2023-04-25T16:07:53.580Z,3.96
2023-04-25T16:10:21.456Z,4.00
2023-04-25T16:12:49.734Z,4.07
2023-04-25T16:15:16.867Z,4.18
2023-04-25T16:17:43.291Z,4.20
2023-04-25T16:20:12.372Z,4.07
2023-04-25T16:22:39.813Z,4.21
2023-04-25T16:25:07.254Z,4.26
2023-04-25T16:27:38.144Z,4.22
2023-04-25T16:30:05.624Z,4.24
2023-04-25T16:32:32.090Z,4.27
2023-04-25T16:34:59.078Z,4.32
2023-04-25T16:37:25.861Z,4.41
2023-04-25T16:39:52.320Z,4.48
2023-04-25T16:42:18.730Z,4.48
2023-04-25T16:44:45.248Z,4.49
2023-04-25T16:47:13.981Z,4.52
2023-04-25T16:49:42.801Z,4.45
2023-04-25T16:52:09.252Z,4.53
2023-04-25T16:54:36.123Z,4.49
2023-04-25T16:57:04.536Z,4.30
2023-04-25T16:59:31.354Z,4.35
2023-04-25T17:01:58.870Z,4.32
2023-04-25T17:04:25.597Z,4.49
2023-04-25T17:06:52.167Z,4.48
2023-04-25T17:09:18.593Z,4.47
2023-04-25T17:11:44.997Z,4.41
2023-04-25T17:14:11.489Z,4.48
2023-04-25T17:16:38.374Z,4.45
2023-04-25T17:19:05.647Z,4.45
2023-04-25T17:21:32.910Z,4.39
2023-04-25T17:23:59.383Z,4.49
2023-04-25T17:26:26.391Z,4.57
2023-04-25T17:28:53.830Z,4.52
2023-04-25T17:31:21.152Z,4.42
2023-04-25T17:33:47.630Z,4.39
2023-04-25T17:36:14.891Z,4.29
2023-04-25T17:38:41.305Z,4.39
2023-04-25T17:41:10.323Z,4.30
2023-04-25T17:43:37.130Z,4.35
2023-04-25T17:46:03.595Z,4.41
2023-04-25T17:48:31.625Z,4.38
2023-04-25T17:50:58.465Z,4.20
2023-04-25T17:53:24.998Z,4.21
2023-04-25T17:55:51.432Z,3.87
2023-04-25T17:58:17.880Z,4.10
2023-04-25T18:00:44.354Z,3.95
2023-04-25T18:03:11.306Z,3.86
2023-04-25T18:05:37.811Z,3.84
2023-04-25T18:08:06.521Z,3.77
2023-04-25T18:10:34.191Z,3.64
2023-04-25T18:13:00.625Z,3.66
2023-04-25T18:15:35.448Z,3.72
2023-04-25T18:18:09.561Z,3.78
2023-04-25T18:20:36.041Z,3.77
2023-04-25T18:23:02.840Z,3.77
2023-04-25T18:25:29.237Z,3.82
2023-04-25T18:27:55.764Z,3.84
2023-04-25T18:30:25.409Z,3.77
2023-04-25T18:48:56.849Z,3.07
2023-04-25T18:51:24.196Z,3.31
2023-04-25T18:53:51.228Z,3.22
2023-04-25T18:56:21.070Z,2.50
2023-04-25T18:58:47.806Z,2.70
2023-04-25T19:01:14.518Z,2.42
2023-04-25T19:03:41.487Z,3.09
2023-04-25T19:06:08.536Z,3.05
2023-04-25T19:08:36.277Z,2.42
2023-04-25T19:11:14.186Z,2.53
2023-04-25T19:13:50.480Z,2.88
2023-04-25T19:16:17.655Z,2.51
2023-04-25T19:18:44.844Z,2.71
2023-04-25T19:21:13.256Z,3.03
2023-04-25T19:23:40.286Z,2.59
2023-04-25T19:26:07.172Z,2.49
2023-04-25T19:28:34.046Z,2.82
2023-04-25T19:31:00.702Z,2.09
2023-04-25T19:33:27.750Z,2.03
2023-04-25T19:35:54.533Z,2.08
2023-04-25T19:38:21.342Z,2.07
2023-04-25T19:40:49.068Z,2.13
2023-04-25T19:43:15.762Z,1.99
2023-04-25T19:45:42.308Z,1.86
2023-04-25T19:48:10.177Z,2.52
2023-04-25T19:50:37.071Z,1.86
2023-04-25T19:53:04.385Z,2.38
2023-04-25T19:55:31.062Z,2.48
2023-04-25T19:57:57.610Z,2.16
2023-04-25T20:00:24.182Z,1.88
2023-04-25T20:02:50.828Z,1.90
2023-04-25T20:05:17.683Z,2.06
2023-04-25T20:07:44.259Z,1.77
2023-04-25T20:10:12.593Z,2.15
2023-04-25T20:12:42.049Z,2.37
2023-04-25T20:15:09.876Z,2.11
2023-04-25T20:17:36.999Z,2.30
2023-04-25T20:20:09.631Z,1.86
2023-04-25T20:22:37.133Z,1.54
2023-04-25T20:25:05.131Z,1.74
2023-04-25T20:27:32.557Z,1.42
2023-04-25T20:30:02.998Z,2.08
2023-04-25T20:32:32.115Z,1.39
2023-04-25T20:34:58.696Z,1.55
2023-04-25T20:37:25.620Z,1.45
2023-04-25T20:39:52.438Z,1.23
2023-04-25T20:42:19.816Z,1.36
2023-04-25T20:44:46.472Z,1.25
2023-04-25T20:47:13.212Z,1.63
2023-04-25T20:49:40.019Z,1.37
2023-04-25T20:52:07.681Z,1.50
2023-04-25T20:54:34.402Z,1.10
2023-04-25T20:57:01.355Z,1.02
2023-04-25T20:59:28.712Z,0.89
2023-04-25T21:02:03.642Z,1.10
2023-04-25T21:04:31.034Z,1.02
2023-04-25T21:07:10.306Z,1.43
2023-04-25T21:09:40.026Z,1.18
2023-04-25T21:12:07.202Z,1.73
2023-04-25T21:14:33.969Z,1.24
2023-04-25T21:17:00.993Z,0.97
2023-04-25T21:19:28.092Z,1.50
2023-04-25T21:21:54.675Z,1.30
2023-04-25T21:24:21.940Z,1.22
2023-04-25T21:26:48.806Z,1.34
2023-04-25T21:29:15.593Z,1.03
2023-04-25T21:31:42.502Z,0.92
2023-04-25T21:34:19.992Z,1.33
2023-04-25T21:36:46.645Z,0.56
2023-04-25T21:39:14.892Z,0.61
2023-04-25T21:41:51.605Z,1.02
2023-04-25T21:44:19.479Z,0.96
2023-04-25T21:46:46.224Z,0.60
2023-04-25T21:49:13.335Z,0.81
2023-04-25T21:51:40.113Z,0.96
2023-04-25T21:54:06.791Z,0.98
2023-04-25T21:56:33.357Z,0.31
2023-04-25T21:59:00.052Z,0.49
2023-04-25T22:01:27.710Z,0.28
2023-04-25T22:03:54.467Z,0.10
2023-04-25T22:06:21.475Z,0.76
2023-04-25T22:08:47.975Z,0.23
2023-04-25T22:11:14.683Z,0.33
2023-04-25T22:13:41.093Z,0.62
2023-04-25T22:16:11.775Z,0.16
2023-04-25T22:18:40.224Z,0.59
2023-04-25T22:21:06.623Z,0.52
2023-04-25T22:23:33.092Z,0.50
2023-04-25T22:25:59.571Z,0.35
2023-04-25T22:28:26.706Z,0.44
2023-04-25T22:30:53.146Z,0.16
2023-04-25T22:33:19.612Z,0.36
2023-04-25T22:35:46.123Z,0.14
2023-04-25T22:38:12.585Z,0.17
2023-04-25T22:40:39.020Z,0.21
2023-04-25T22:43:05.485Z,0.08
2023-04-25T22:45:32.761Z,0.04
2023-04-25T22:47:59.394Z,0.05
2023-04-25T22:50:26.979Z,-0.03
2023-04-25T22:52:53.638Z,0.05
2023-04-25T22:55:20.120Z,-0.07
2023-04-25T22:57:46.573Z,-0.04
2023-04-25T23:00:19.700Z,-0.03
2023-04-25T23:02:47.173Z,0.09
2023-04-25T23:05:14.266Z,-0.02
2023-04-25T23:07:41.003Z,0.04
2023-04-25T23:10:08.604Z,0.05
2023-04-25T23:12:35.406Z,0.06
2023-04-25T23:15:02.947Z,-0.09
2023-04-25T23:17:29.375Z,-0.12
2023-04-25T23:19:55.792Z,-0.14
2023-04-25T23:22:22.270Z,-0.15
2023-04-25T23:24:48.716Z,-0.16
2023-04-25T23:27:15.249Z,-0.27
2023-04-25T23:29:41.712Z,-0.19
2023-04-25T23:32:08.777Z,-0.18
2023-04-25T23:34:35.186Z,-0.33
2023-04-25T23:37:01.871Z,-0.27
2023-04-25T23:39:28.335Z,-0.26
2023-04-25T23:41:54.782Z,-0.49
2023-04-25T23:44:21.334Z,-0.52
2023-04-25T23:46:48.152Z,-0.50
2023-04-25T23:49:14.894Z,-0.39
2023-04-25T23:51:41.334Z,-0.60
2023-04-25T23:54:08.266Z,-0.44
2023-04-25T23:56:34.688Z,-0.90
2023-04-25T23:59:01.202Z,-0.58
